Time;durP1;ratioP1;P1;durP2;ratioP2;P2;SDS_P1;SDS_P2;PMS_P1;PMS_P2;Temp;Humidity;BMP_temperature;BMP_pressure;BME280_temperature;BME280_humidity;BME280_pressure;Samples;Min_cycle;Max_cycle;Signal;HPM_P1;HPM_P2
2021/06/29 00:01:00;;;;;;;;;2.00;1.25;;;;;16.39;78.76;101110.91;5013951;28;45373;-68
2021/06/29 00:03:25;;;;;;;;;2.00;2.00;;;;;16.37;79.04;101102.28;5008352;28;46127;-71
2021/06/29 00:05:51;;;;;;;;;1.75;1.75;;;;;16.35;78.52;101101.63;5010508;28;46417;-65
2021/06/29 00:08:17;;;;;;;;;2.25;2.25;;;;;16.33;78.17;101108.94;5011342;28;45551;-68
2021/06/29 00:10:42;;;;;;;;;2.50;1.25;;;;;16.29;78.78;101104.97;5009016;28;45418;-68
2021/06/29 00:13:08;;;;;;;;;1.00;1.00;;;;;16.25;79.43;101099.19;5009187;28;45580;-68
2021/06/29 00:15:34;;;;;;;;;1.50;1.50;;;;;16.25;79.58;101103.69;5007603;28;45628;-69
2021/06/29 00:18:00;;;;;;;;;3.00;2.00;;;;;16.24;78.81;101102.00;5008918;28;45594;-68
2021/06/29 00:20:25;;;;;;;;;2.00;2.00;;;;;16.22;79.35;101099.53;5012207;28;45506;-69
2021/06/29 00:22:51;;;;;;;;;2.00;2.00;;;;;16.21;79.37;101100.53;5011226;28;45611;-68
2021/06/29 00:25:18;;;;;;;;;2.75;2.00;;;;;16.19;79.54;101091.88;5007707;28;45629;-68
2021/06/29 00:27:44;;;;;;;;;2.00;2.00;;;;;16.19;79.33;101097.22;5010412;28;45647;-66
2021/06/29 00:30:10;;;;;;;;;2.00;1.25;;;;;16.17;79.19;101095.72;5011527;28;45461;-64
2021/06/29 00:32:36;;;;;;;;;2.50;2.50;;;;;16.15;79.55;101100.41;5012354;28;45441;-64
2021/06/29 00:35:03;;;;;;;;;2.00;2.00;;;;;16.12;79.78;101083.78;5014058;28;46198;-69
2021/06/29 00:37:29;;;;;;;;;3.50;2.00;;;;;16.09;79.71;101084.09;5001397;28;45399;-69
2021/06/29 00:39:54;;;;;;;;;3.75;2.00;;;;;16.11;80.17;101092.75;5012298;28;45373;-64
2021/06/29 00:42:20;;;;;;;;;3.00;1.50;;;;;16.09;79.58;101088.63;5015329;28;45457;-68
2021/06/29 00:44:46;;;;;;;;;2.75;2.75;;;;;16.08;79.10;101087.78;5008175;28;45491;-66
2021/06/29 00:47:12;;;;;;;;;4.75;2.00;;;;;16.09;79.96;101088.63;5011733;28;45496;-69
2021/06/29 00:49:38;;;;;;;;;1.25;1.25;;;;;16.07;79.45;101086.16;5008598;28;45555;-64
2021/06/29 00:52:06;;;;;;;;;1.00;1.00;;;;;16.06;79.80;101081.78;5008015;28;45401;-66
2021/06/29 00:54:34;;;;;;;;;3.00;3.00;;;;;16.05;79.98;101080.16;5023181;28;46796;-66
2021/06/29 00:57:00;;;;;;;;;2.00;2.00;;;;;16.05;80.29;101074.00;5010968;28;45476;-65
2021/06/29 00:59:26;;;;;;;;;2.00;2.00;;;;;16.03;79.78;101066.16;5022256;28;45739;-67
2021/06/29 01:01:51;;;;;;;;;2.00;2.00;;;;;16.02;79.15;101072.50;5009127;28;45803;-67
2021/06/29 01:04:17;;;;;;;;;3.00;2.00;;;;;16.01;80.09;101076.16;5007782;28;46036;-69
2021/06/29 01:06:44;;;;;;;;;3.75;2.50;;;;;16.00;80.42;101069.19;5008212;28;45421;-66
2021/06/29 01:09:09;;;;;;;;;2.25;2.00;;;;;15.99;79.43;101067.50;5013747;28;45498;-65
2021/06/29 01:11:35;;;;;;;;;2.00;2.00;;;;;15.98;79.92;101065.88;5015532;28;45438;-68
2021/06/29 01:14:15;;;;;;;;;2.00;2.00;;;;;15.97;80.37;101066.03;5011788;28;45423;-64
2021/06/29 01:16:41;;;;;;;;;2.00;2.00;;;;;15.96;80.24;101073.22;5011160;28;45842;-64
2021/06/29 01:19:07;;;;;;;;;2.00;2.00;;;;;15.95;80.27;101071.56;5015435;28;45469;-68
2021/06/29 01:21:41;;;;;;;;;4.75;4.00;;;;;15.95;79.66;101060.03;5013734;28;45364;-69
2021/06/29 01:24:20;;;;;;;;;4.00;3.00;;;;;15.91;80.52;101054.25;5013641;28;47542;-68
2021/06/29 01:26:54;;;;;;;;;3.50;3.00;;;;;15.92;80.78;101055.91;5003778;28;45528;-64
2021/06/29 01:29:21;;;;;;;;;5.00;4.25;;;;;15.93;81.18;101062.06;5014399;28;45561;-65
2021/06/29 01:31:46;;;;;;;;;3.00;3.00;;;;;15.90;80.76;101052.59;5011490;28;45433;-70
2021/06/29 01:34:12;;;;;;;;;3.00;2.75;;;;;15.90;81.19;101061.41;5010435;28;45976;-66
2021/06/29 01:36:38;;;;;;;;;4.50;3.25;;;;;15.89;80.78;101057.06;5010709;28;45635;-64
2021/06/29 01:39:07;;;;;;;;;4.25;2.00;;;;;15.88;81.21;101049.28;5010916;28;45549;-67
2021/06/29 01:41:32;;;;;;;;;4.75;3.25;;;;;15.86;81.10;101051.28;5013590;28;45567;-67
2021/06/29 01:46:26;;;;;;;;;3.00;2.25;;;;;15.83;80.30;101054.31;5010810;28;45567;-68
2021/06/29 01:48:53;;;;;;;;;2.50;2.25;;;;;15.79;80.31;101055.66;5011996;28;45588;-68
2021/06/29 01:51:20;;;;;;;;;3.75;3.75;;;;;15.78;80.85;101057.50;5010384;28;45507;-65
2021/06/29 01:53:47;;;;;;;;;3.00;2.00;;;;;15.76;80.16;101050.69;5011071;28;45690;-68
2021/06/29 01:56:18;;;;;;;;;4.00;3.00;;;;;15.73;80.15;101045.72;5013268;28;45487;-68
2021/06/29 01:58:57;;;;;;;;;5.00;3.00;;;;;15.70;79.98;101041.53;5012106;28;46109;-68
2021/06/29 02:01:23;;;;;;;;;2.50;2.50;;;;;15.68;80.55;101039.03;5011172;28;45501;-67
2021/06/29 02:03:49;;;;;;;;;4.50;3.00;;;;;15.66;80.99;101040.22;5010918;28;46351;-65
2021/06/29 02:06:16;;;;;;;;;4.00;2.00;;;;;15.64;80.48;101044.88;5009972;28;45722;-66
2021/06/29 02:08:42;;;;;;;;;4.00;2.75;;;;;15.60;80.57;101041.75;5011460;28;45423;-68
2021/06/29 02:11:08;;;;;;;;;3.25;2.00;;;;;15.56;80.47;101044.94;5012099;28;45604;-65
2021/06/29 02:13:33;;;;;;;;;4.00;4.00;;;;;15.53;80.63;101038.13;5012755;28;45837;-65
2021/06/29 02:16:00;;;;;;;;;3.25;3.00;;;;;15.51;80.44;101040.13;5010204;28;45421;-70
2021/06/29 02:18:29;;;;;;;;;2.50;2.50;;;;;15.48;81.15;101043.16;5011658;28;45606;-68
2021/06/29 02:20:55;;;;;;;;;2.00;2.00;;;;;15.48;81.01;101035.16;5010957;28;45327;-64
2021/06/29 02:23:21;;;;;;;;;3.75;3.25;;;;;15.47;80.72;101038.81;5013368;28;45657;-66
2021/06/29 02:25:46;;;;;;;;;2.00;2.00;;;;;15.45;80.75;101036.34;5013120;28;45350;-66
2021/06/29 02:28:12;;;;;;;;;3.75;2.25;;;;;15.42;80.86;101031.31;5006096;28;45564;-67
2021/06/29 02:30:38;;;;;;;;;3.00;3.00;;;;;15.43;81.33;101041.00;5011943;28;45520;-67
2021/06/29 02:33:03;;;;;;;;;5.75;3.25;;;;;15.41;80.89;101034.19;5010276;28;45952;-68
2021/06/29 02:35:29;;;;;;;;;3.50;3.00;;;;;15.38;81.25;101050.47;5011910;28;45468;-64
2021/06/29 02:37:55;;;;;;;;;3.00;2.00;;;;;15.34;81.39;101046.53;5012633;28;45500;-67
2021/06/29 02:40:21;;;;;;;;;3.75;2.00;;;;;15.30;81.74;101045.19;5009696;28;45502;-65
2021/06/29 02:42:46;;;;;;;;;3.25;3.00;;;;;15.24;81.00;101039.56;5012942;28;46531;-65
2021/06/29 02:45:17;;;;;;;;;3.50;3.00;;;;;15.21;81.62;101036.44;5009907;28;45744;-68
2021/06/29 02:47:42;;;;;;;;;2.50;2.50;;;;;15.19;81.11;101039.25;5012785;28;45386;-68
2021/06/29 02:50:09;;;;;;;;;5.75;3.25;;;;;15.16;80.86;101036.94;5009870;28;45541;-68
2021/06/29 02:52:36;;;;;;;;;2.75;2.75;;;;;15.18;81.93;101031.44;5013069;28;46886;-68
2021/06/29 02:55:04;;;;;;;;;4.00;4.00;;;;;15.17;82.16;101030.59;5012106;28;45607;-64
2021/06/29 02:57:29;;;;;;;;;6.25;4.00;;;;;15.19;82.19;101027.78;5025894;28;45572;-65
2021/06/29 02:59:54;;;;;;;;;5.00;3.00;;;;;15.18;82.15;101018.97;5014083;28;45590;-66
2021/06/29 03:02:20;;;;;;;;;5.00;4.75;;;;;15.17;80.68;101017.28;5013987;28;49317;-63
2021/06/29 03:04:45;;;;;;;;;2.50;2.50;;;;;15.13;80.59;101017.81;5014442;28;45600;-65
2021/06/29 03:07:10;;;;;;;;;5.00;3.00;;;;;15.12;80.68;101013.50;5008886;28;45582;-67
2021/06/29 03:09:36;;;;;;;;;2.00;2.00;;;;;15.10;80.87;101018.97;5008923;28;45607;-64
2021/06/29 03:12:01;;;;;;;;;3.75;3.00;;;;;15.06;81.19;101009.69;5009088;28;45621;-70
2021/06/29 03:14:27;;;;;;;;;4.00;2.25;;;;;15.03;81.30;101015.34;5012437;28;45603;-68
2021/06/29 03:16:52;;;;;;;;;6.75;5.00;;;;;14.99;81.09;101003.41;5008587;28;45726;-68
2021/06/29 03:19:19;;;;;;;;;3.25;3.25;;;;;14.94;81.40;101003.09;5009661;28;45773;-66
2021/06/29 03:21:44;;;;;;;;;4.75;4.00;;;;;14.93;81.31;101001.41;5009734;28;46481;-64
2021/06/29 03:24:10;;;;;;;;;5.00;3.00;;;;;14.93;81.29;101001.41;5009696;28;45617;-65
2021/06/29 03:26:36;;;;;;;;;4.00;4.00;;;;;14.92;81.64;100989.94;5010067;28;45864;-67
2021/06/29 03:29:04;;;;;;;;;6.25;6.25;;;;;14.94;81.97;100987.94;5012822;28;45551;-70
2021/06/29 03:31:30;;;;;;;;;6.00;4.00;;;;;14.96;81.77;100993.06;5003272;28;45489;-67
2021/06/29 03:33:55;;;;;;;;;4.25;3.50;;;;;14.98;81.72;100991.91;5009628;28;45445;-68
2021/06/29 03:36:21;;;;;;;;;3.25;3.00;;;;;14.98;81.23;100991.06;5010318;28;45589;-68
2021/06/29 03:38:46;;;;;;;;;5.25;5.25;;;;;15.01;82.25;100991.59;5012617;28;45374;-65
2021/06/29 03:41:11;;;;;;;;;3.75;3.75;;;;;14.99;81.52;100990.91;5012258;28;45598;-66
2021/06/29 03:43:38;;;;;;;;;6.00;3.00;;;;;15.01;81.65;100988.09;5012964;28;45322;-67
2021/06/29 03:46:04;;;;;;;;;5.00;3.00;;;;;15.05;81.53;100994.72;5011174;28;45803;-66
2021/06/29 03:48:30;;;;;;;;;2.25;1.75;;;;;15.04;80.68;100990.41;5009677;28;45500;-69
2021/06/29 03:50:55;;;;;;;;;6.00;3.00;;;;;15.03;81.61;100999.38;5007722;28;46442;-68
2021/06/29 03:53:20;;;;;;;;;3.00;3.00;;;;;15.03;81.47;100999.38;5012327;28;45764;-67
2021/06/29 03:55:46;;;;;;;;;5.00;3.00;;;;;14.99;81.40;100990.91;5008108;28;45477;-63
2021/06/29 03:58:11;;;;;;;;;3.75;2.75;;;;;14.99;81.14;100979.44;5010870;28;45513;-66
2021/06/29 04:00:36;;;;;;;;;3.25;3.00;;;;;15.02;81.07;100987.06;5003573;28;45402;-66
2021/06/29 04:03:02;;;;;;;;;4.75;3.50;;;;;15.01;80.96;100988.91;5002999;28;45627;-64
2021/06/29 04:05:28;;;;;;;;;2.75;2.75;;;;;15.02;80.99;100990.56;5011854;28;45556;-62
2021/06/29 04:07:53;;;;;;;;;6.00;3.50;;;;;15.07;81.13;100995.38;5011850;28;45480;-66
2021/06/29 04:10:19;;;;;;;;;4.25;3.00;;;;;15.11;80.65;100991.38;5012694;28;45570;-68
2021/06/29 04:12:44;;;;;;;;;5.00;2.50;;;;;15.14;81.13;100999.00;5011012;28;45421;-70
2021/06/29 04:15:10;;;;;;;;;2.25;2.25;;;;;15.17;80.59;100998.66;5013439;28;46362;-65
2021/06/29 04:17:37;;;;;;;;;2.75;2.75;;;;;15.20;81.16;100992.97;5009745;28;45448;-68
2021/06/29 04:20:05;;;;;;;;;4.50;2.75;;;;;15.22;80.73;100987.50;5008816;28;47085;-70
2021/06/29 04:22:30;;;;;;;;;3.75;3.75;;;;;15.23;80.41;100984.66;5007916;28;45471;-65
2021/06/29 04:24:57;;;;;;;;;3.00;2.25;;;;;15.26;80.90;100980.81;5011112;28;45964;-65
2021/06/29 04:27:22;;;;;;;;;3.25;3.00;;;;;15.29;80.24;100979.66;5008975;28;45600;-70
2021/06/29 04:29:49;;;;;;;;;3.00;3.00;;;;;15.30;79.34;100975.97;5008875;28;45415;-66
2021/06/29 04:32:14;;;;;;;;;3.75;3.00;;;;;15.29;79.72;100990.31;5012701;28;45526;-68
2021/06/29 04:34:39;;;;;;;;;3.00;2.00;;;;;15.29;79.70;100991.13;5009730;28;45480;-62
2021/06/29 04:37:05;;;;;;;;;2.00;2.00;;;;;15.32;79.46;100989.94;5008001;28;45563;-68
2021/06/29 04:39:30;;;;;;;;;3.75;3.00;;;;;15.33;79.82;100981.78;5008134;28;45454;-70
2021/06/29 04:41:56;;;;;;;;;4.00;3.00;;;;;15.37;79.74;100979.59;5009264;28;45692;-67
2021/06/29 04:44:21;;;;;;;;;4.50;2.00;;;;;15.38;79.10;100979.44;5012278;28;45666;-65
2021/06/29 04:46:49;;;;;;;;;2.25;2.25;;;;;15.39;79.20;100983.75;5010443;28;45560;-68
2021/06/29 04:49:16;;;;;;;;;2.75;2.75;;;;;15.43;79.66;100973.56;5007813;28;45473;-65
2021/06/29 04:51:41;;;;;;;;;6.00;2.25;;;;;15.47;79.04;100969.53;5006986;28;45570;-69
2021/06/29 04:54:06;;;;;;;;;6.25;4.00;;;;;15.52;79.00;100975.19;5010603;28;45494;-67
2021/06/29 04:56:32;;;;;;;;;3.50;2.00;;;;;15.56;77.97;100967.69;5012605;28;45466;-66
2021/06/29 04:58:58;;;;;;;;;3.00;3.00;;;;;15.58;78.61;100968.31;5010821;28;47315;-67
2021/06/29 05:01:24;;;;;;;;;3.00;3.00;;;;;15.64;78.43;100978.28;5008070;28;45576;-65
2021/06/29 05:03:50;;;;;;;;;3.00;3.00;;;;;15.67;78.93;100973.41;5009505;28;45725;-69
2021/06/29 05:06:16;;;;;;;;;4.75;2.25;;;;;15.75;78.30;100977.06;5009025;28;45536;-69
2021/06/29 05:08:42;;;;;;;;;5.00;5.00;;;;;15.82;78.59;100981.50;5009147;28;45570;-68
2021/06/29 05:11:08;;;;;;;;;5.75;4.00;;;;;15.90;78.48;100978.78;5017030;28;45976;-68
2021/06/29 05:13:33;;;;;;;;;4.00;4.00;;;;;16.01;78.37;100990.03;5002962;28;45441;-68
2021/06/29 05:15:59;;;;;;;;;4.75;4.00;;;;;16.04;77.46;100987.84;5008363;28;45637;-68
2021/06/29 05:18:24;;;;;;;;;6.50;6.00;;;;;16.12;77.07;100992.25;5011959;28;46712;-65
2021/06/29 05:20:50;;;;;;;;;6.75;4.25;;;;;16.17;76.79;100994.41;5007293;28;45479;-68
2021/06/29 05:23:15;;;;;;;;;5.50;5.00;;;;;16.15;76.55;101005.25;5010938;28;45418;-70
2021/06/29 05:25:41;;;;;;;;;5.00;5.00;;;;;16.12;76.23;100998.44;5008964;28;45686;-67
2021/06/29 05:28:06;;;;;;;;;5.75;4.50;;;;;16.16;75.64;101008.75;5004559;28;46300;-72
2021/06/29 05:30:31;;;;;;;;;5.00;5.00;;;;;16.16;76.48;101006.91;5005174;28;45474;-71
2021/06/29 05:32:57;;;;;;;;;4.50;3.75;;;;;16.15;76.66;101013.25;5004621;28;45469;-69
2021/06/29 05:35:22;;;;;;;;;4.00;4.00;;;;;16.11;76.03;101007.44;5006825;28;45525;-70
2021/06/29 05:37:48;;;;;;;;;4.25;4.25;;;;;16.11;76.29;101007.44;5006697;28;45797;-69
2021/06/29 05:40:14;;;;;;;;;3.50;3.00;;;;;16.15;76.36;101007.06;5008800;28;45737;-68
2021/06/29 05:42:39;;;;;;;;;6.00;4.00;;;;;16.19;76.33;101019.06;5002691;28;45622;-63
2021/06/29 05:45:06;;;;;;;;;4.00;4.00;;;;;16.21;75.97;101017.03;5019502;28;45734;-68
2021/06/29 05:47:35;;;;;;;;;6.50;6.25;;;;;16.25;76.62;101018.34;5013231;28;46433;-68
2021/06/29 05:50:02;;;;;;;;;3.25;3.25;;;;;16.27;75.83;101024.31;5008358;28;45571;-69
2021/06/29 05:52:27;;;;;;;;;6.50;3.25;;;;;16.31;76.52;101034.44;5013647;28;45373;-71
2021/06/29 05:54:53;;;;;;;;;5.75;4.75;;;;;16.34;75.90;101025.25;5015959;28;45445;-69
2021/06/29 05:57:18;;;;;;;;;4.00;4.00;;;;;16.38;75.13;101026.56;5015405;28;47016;-70
2021/06/29 05:59:44;;;;;;;;;5.50;4.25;;;;;16.39;75.97;101024.72;5019776;28;45885;-66
2021/06/29 06:02:10;;;;;;;;;5.50;4.00;;;;;16.41;75.12;101028.84;5024552;28;45307;-64
2021/06/29 06:04:36;;;;;;;;;3.50;3.50;;;;;16.38;75.14;101023.06;5013961;28;45465;-65
2021/06/29 06:07:02;;;;;;;;;5.25;4.00;;;;;16.41;76.03;101026.19;5009512;28;46999;-69
2021/06/29 06:09:28;;;;;;;;;6.00;5.00;;;;;16.45;75.64;101032.00;5014452;28;45693;-65
2021/06/29 06:11:53;;;;;;;;;4.75;3.00;;;;;16.49;76.16;101038.63;5015212;28;45500;-67
2021/06/29 06:14:19;;;;;;;;;5.50;5.50;;;;;16.52;76.63;101040.94;5012239;28;45410;-70
2021/06/29 06:16:45;;;;;;;;;5.50;4.00;;;;;16.51;76.37;101031.28;5010880;28;45526;-66
2021/06/29 06:19:10;;;;;;;;;4.00;3.75;;;;;16.57;76.92;101049.25;5009628;28;45498;-69
2021/06/29 06:21:35;;;;;;;;;5.50;5.50;;;;;16.59;76.03;101038.38;5005100;28;45812;-69
2021/06/29 06:24:01;;;;;;;;;5.25;3.75;;;;;16.57;76.09;101038.56;5005638;28;45616;-65
2021/06/29 06:26:26;;;;;;;;;5.25;4.75;;;;;16.60;76.72;101038.19;5007303;28;45515;-65
2021/06/29 06:28:52;;;;;;;;;4.50;3.25;;;;;16.65;76.41;101035.81;5007436;28;45457;-73
2021/06/29 06:31:17;;;;;;;;;6.25;5.00;;;;;16.69;76.11;101038.94;5008653;28;45492;-64
2021/06/29 06:33:42;;;;;;;;;5.00;5.00;;;;;16.68;76.88;101038.09;5006517;28;45452;-67
2021/06/29 06:36:08;;;;;;;;;4.50;4.50;;;;;16.69;77.27;101028.25;5005967;28;45556;-70
2021/06/29 06:38:34;;;;;;;;;6.00;5.00;;;;;16.76;77.51;101031.84;5007412;28;45581;-65
2021/06/29 06:40:59;;;;;;;;;5.00;4.00;;;;;16.85;77.09;101036.13;5002490;28;45442;-70
2021/06/29 06:43:25;;;;;;;;;4.75;4.00;;;;;16.89;77.45;101036.59;5002873;28;45426;-68
2021/06/29 06:45:50;;;;;;;;;4.25;4.25;;;;;16.95;76.99;101034.03;5005339;28;46436;-68
2021/06/29 06:48:15;;;;;;;;;4.75;4.00;;;;;17.01;77.27;101034.28;4992348;28;45492;-68
2021/06/29 06:50:41;;;;;;;;;7.50;5.25;;;;;17.03;77.71;101032.28;5002819;28;45855;-64
2021/06/29 06:53:06;;;;;;;;;6.25;4.50;;;;;16.99;77.63;101037.16;5004177;28;45902;-63
2021/06/29 06:55:32;;;;;;;;;7.00;6.50;;;;;16.98;77.29;101036.31;5003992;28;47201;-68
2021/06/29 06:57:57;;;;;;;;;5.75;5.75;;;;;16.94;76.88;101043.06;4994285;28;45551;-65
2021/06/29 07:00:24;;;;;;;;;6.50;6.00;;;;;16.84;76.97;101045.16;5004235;28;45638;-63
2021/06/29 07:02:50;;;;;;;;;4.25;4.25;;;;;16.76;76.85;101047.88;5005301;28;53646;-63
2021/06/29 07:05:16;;;;;;;;;7.00;6.00;;;;;16.74;76.96;101045.41;5006725;28;46443;-67
2021/06/29 07:07:42;;;;;;;;;5.25;4.75;;;;;16.71;77.04;101048.41;5003894;28;45510;-70
2021/06/29 07:10:08;;;;;;;;;8.25;6.00;;;;;16.63;77.02;101048.50;5006378;28;45524;-65
2021/06/29 07:12:34;;;;;;;;;5.00;5.00;;;;;16.58;77.74;101050.06;4996549;28;45567;-70
2021/06/29 07:15:01;;;;;;;;;6.00;6.00;;;;;16.58;78.87;101050.06;5006101;28;46274;-63
2021/06/29 07:17:27;;;;;;;;;5.25;5.00;;;;;16.62;79.49;101056.72;5008788;28;45553;-62
2021/06/29 07:19:52;;;;;;;;;8.50;6.50;;;;;16.70;80.16;101052.09;5006790;28;45593;-63
2021/06/29 07:22:19;;;;;;;;;8.00;6.00;;;;;16.80;80.14;101053.72;5004272;28;45709;-66
2021/06/29 07:24:44;;;;;;;;;7.25;7.00;;;;;16.87;79.61;101050.13;4999646;28;45783;-66
2021/06/29 07:27:10;;;;;;;;;10.00;7.75;;;;;16.93;78.63;101060.06;5011741;28;45472;-64
2021/06/29 07:29:36;;;;;;;;;6.25;5.00;;;;;16.98;80.91;101055.00;5007358;28;45519;-66
2021/06/29 07:32:02;;;;;;;;;7.00;7.00;;;;;17.12;80.71;101050.69;5008944;28;45594;-63
2021/06/29 07:34:27;;;;;;;;;9.75;7.00;;;;;17.26;80.14;101058.88;5009425;28;46414;-68
2021/06/29 07:36:53;;;;;;;;;9.75;8.00;;;;;17.39;79.42;101054.53;5012285;28;45415;-66
2021/06/29 07:39:18;;;;;;;;;8.75;7.75;;;;;17.52;78.99;101053.88;5005700;28;45662;-66
2021/06/29 07:41:44;;;;;;;;;9.00;7.75;;;;;17.62;79.88;101058.91;5006929;28;45597;-66
2021/06/29 07:44:10;;;;;;;;;7.00;6.00;;;;;17.78;77.35;101053.38;5018304;28;47220;-64
2021/06/29 07:46:35;;;;;;;;;9.75;7.25;;;;;17.91;77.67;101062.56;5004361;28;45648;-70
2021/06/29 07:49:01;;;;;;;;;7.25;7.25;;;;;17.94;76.23;101060.34;5006956;28;46445;-69
2021/06/29 07:51:27;;;;;;;;;8.50;7.25;;;;;17.98;76.75;101058.13;5022153;28;46271;-65
2021/06/29 07:53:52;;;;;;;;;10.75;9.25;;;;;18.07;76.16;101062.31;5004212;28;45481;-64
2021/06/29 07:56:18;;;;;;;;;8.75;7.50;;;;;18.16;75.67;101060.34;5006589;28;45516;-66
2021/06/29 07:58:44;;;;;;;;;8.00;7.00;;;;;18.19;76.05;101052.75;5010253;28;45899;-65
2021/06/29 08:01:11;;;;;;;;;8.00;7.50;;;;;18.36;77.08;101052.50;5004280;28;45476;-69
2021/06/29 08:03:36;;;;;;;;;9.00;7.50;;;;;18.61;76.19;101061.75;4999827;28;46552;-67
2021/06/29 08:06:02;;;;;;;;;8.00;7.00;;;;;18.74;74.66;101057.53;5003539;28;45581;-63
2021/06/29 08:08:29;;;;;;;;;8.25;5.75;;;;;18.85;75.19;101062.38;5004751;28;45598;-66
2021/06/29 08:10:56;;;;;;;;;7.50;6.50;;;;;18.98;73.67;101062.47;5014664;28;45514;-66
2021/06/29 08:13:21;;;;;;;;;8.25;5.50;;;;;19.00;73.30;101063.09;5012536;28;45417;-60
2021/06/29 08:15:46;;;;;;;;;7.75;7.50;;;;;19.05;74.17;101060.66;5011712;28;45520;-68
2021/06/29 08:18:13;;;;;;;;;11.25;8.50;;;;;19.07;72.54;101063.97;5004593;28;45528;-61
2021/06/29 08:20:38;;;;;;;;;8.50;6.75;;;;;19.03;72.62;101060.03;5003521;28;45588;-63
2021/06/29 08:23:04;;;;;;;;;8.50;7.00;;;;;19.02;71.92;101063.75;5006477;28;47470;-62
2021/06/29 08:25:29;;;;;;;;;7.75;7.75;;;;;18.97;73.43;101065.34;5000657;28;45651;-62
2021/06/29 08:27:55;;;;;;;;;8.75;7.25;;;;;19.04;74.02;101071.56;5012110;28;45645;-67
2021/06/29 08:30:22;;;;;;;;;6.00;5.25;;;;;19.15;73.69;101071.00;5007496;28;45624;-62
2021/06/29 08:32:47;;;;;;;;;5.50;5.50;;;;;19.18;72.26;101065.25;5007469;28;46721;-64
2021/06/29 08:35:13;;;;;;;;;5.25;4.50;;;;;19.20;73.65;101070.44;5002642;28;45482;-68
2021/06/29 08:37:41;;;;;;;;;5.00;5.00;;;;;19.20;71.13;101057.03;5003265;28;45522;-62
2021/06/29 08:40:09;;;;;;;;;4.50;2.75;;;;;19.17;71.67;101068.16;5003084;28;45622;-66
2021/06/29 08:42:37;;;;;;;;;3.00;2.50;;;;;19.20;72.59;101063.22;5010476;28;47821;-64
2021/06/29 08:45:05;;;;;;;;;1.25;1.25;;;;;19.23;70.22;101067.34;5010025;28;45508;-67
2021/06/29 08:47:33;;;;;;;;;1.75;1.50;;;;;19.22;71.77;101069.19;5007543;28;45800;-65
2021/06/29 08:49:59;;;;;;;;;2.25;2.25;;;;;19.30;72.51;101060.16;5005440;28;45586;-66
2021/06/29 08:52:25;;;;;;;;;3.25;3.00;;;;;19.34;71.39;101064.94;5009472;28;46414;-69
2021/06/29 08:54:51;;;;;;;;;4.00;3.00;;;;;19.40;71.88;101063.31;5017772;28;45576;-69
2021/06/29 08:57:16;;;;;;;;;5.25;3.25;;;;;19.45;72.95;101068.88;4999809;28;45501;-64
2021/06/29 08:59:42;;;;;;;;;5.00;4.00;;;;;19.50;72.01;101063.75;5007009;28;45685;-65
2021/06/29 09:02:07;;;;;;;;;3.00;2.25;;;;;19.56;72.51;101072.88;5005241;28;45576;-62
2021/06/29 09:04:43;;;;;;;;;2.75;2.75;;;;;19.62;72.37;101065.88;5004700;28;45601;-68
2021/06/29 09:07:24;;;;;;;;;3.00;3.00;;;;;19.73;71.99;101059.94;5004728;28;45617;-69
2021/06/29 09:09:55;;;;;;;;;3.50;1.50;;;;;19.85;69.98;101066.38;5001129;28;45564;-62
2021/06/29 09:12:41;;;;;;;;;2.50;1.75;;;;;19.95;71.08;101066.84;5011291;28;46175;-61
2021/06/29 09:15:22;;;;;;;;;3.50;3.50;;;;;19.98;70.35;101065.59;5001110;28;45478;-66
2021/06/29 09:17:48;;;;;;;;;3.50;2.25;;;;;20.01;70.63;101061.69;5004979;28;45773;-69
2021/06/29 09:20:14;;;;;;;;;3.00;3.00;;;;;20.05;70.26;101058.38;5004608;28;46672;-66
2021/06/29 09:22:39;;;;;;;;;4.00;4.00;;;;;20.12;70.19;101063.75;5007505;28;46347;-65
2021/06/29 09:25:24;;;;;;;;;2.75;2.75;;;;;20.25;69.88;101055.72;4998439;28;45655;-64
2021/06/29 09:27:50;;;;;;;;;3.00;2.50;;;;;20.37;68.77;101059.44;4998076;28;45509;-68
2021/06/29 09:30:36;;;;;;;;;3.75;3.75;;;;;20.56;69.93;101057.00;5003941;28;45873;-63
2021/06/29 09:33:06;;;;;;;;;4.00;4.00;;;;;20.78;69.78;101058.41;5006262;28;46251;-63
2021/06/29 09:35:32;;;;;;;;;3.00;2.75;;;;;21.06;68.76;101060.00;5013933;28;45438;-65
2021/06/29 09:37:58;;;;;;;;;3.00;3.00;;;;;21.40;67.38;101058.09;5012897;28;45496;-66
2021/06/29 09:40:28;;;;;;;;;6.00;3.00;;;;;21.83;66.56;101055.56;5006560;28;45612;-67
2021/06/29 09:43:06;;;;;;;;;2.50;2.50;;;;;22.35;66.00;101047.38;5006952;28;46371;-69
2021/06/29 09:45:45;;;;;;;;;1.00;1.00;;;;;22.87;65.54;101050.66;5010588;28;46048;-67
2021/06/29 09:48:31;;;;;;;;;3.00;3.00;;;;;23.40;63.48;101052.75;5008509;28;45424;-70
2021/06/29 09:51:01;;;;;;;;;2.00;1.00;;;;;23.96;61.88;101049.97;5019816;28;45470;-70
2021/06/29 09:53:31;;;;;;;;;1.00;1.00;;;;;24.51;60.28;101043.53;5011303;28;45609;-70
2021/06/29 09:56:02;;;;;;;;;2.25;1.25;;;;;25.11;58.44;101043.22;5008375;28;45563;-70
2021/06/29 09:58:30;;;;;;;;;3.00;2.00;;;;;25.43;56.01;101038.22;5015041;28;45589;-65
2021/06/29 10:00:58;;;;;;;;;3.75;1.00;;;;;25.78;56.96;101050.78;5009789;28;45572;-67
2021/06/29 10:03:38;;;;;;;;;2.50;1.50;;;;;26.19;57.39;101040.72;5011499;28;45865;-64
2021/06/29 10:06:11;;;;;;;;;1.75;1.00;;;;;26.22;53.41;101045.63;5003998;28;45436;-70
2021/06/29 10:08:38;;;;;;;;;2.00;2.00;;;;;26.02;54.08;101037.16;5012425;28;45655;-68
2021/06/29 10:11:05;;;;;;;;;2.00;2.00;;;;;25.90;53.05;101037.22;5011406;28;45507;-68
2021/06/29 10:13:36;;;;;;;;;2.00;1.50;;;;;25.80;55.29;101045.97;5011824;28;46928;-67
2021/06/29 10:16:04;;;;;;;;;1.00;1.00;;;;;25.81;54.85;101044.06;5017240;28;45927;-67
2021/06/29 10:18:32;;;;;;;;;3.00;2.00;;;;;25.88;55.21;101048.28;5013467;28;45501;-69
2021/06/29 10:21:01;;;;;;;;;1.25;1.25;;;;;25.92;54.04;101041.34;5012569;28;45594;-67
2021/06/29 10:23:27;;;;;;;;;1.75;1.50;;;;;25.92;52.44;101040.53;5008520;28;45520;-68
2021/06/29 10:25:52;;;;;;;;;1.00;1.00;;;;;26.00;53.52;101042.00;5007590;28;45550;-69
2021/06/29 10:28:18;;;;;;;;;1.75;1.00;;;;;26.04;52.07;101037.72;5007205;28;45856;-67
2021/06/29 10:30:45;;;;;;;;;1.75;1.00;;;;;25.88;52.59;101037.47;5014651;28;45481;-67
2021/06/29 10:33:14;;;;;;;;;2.00;2.00;;;;;25.81;50.97;101035.94;5005335;28;45928;-67
2021/06/29 10:35:42;;;;;;;;;2.00;2.00;;;;;25.81;50.96;101027.81;5007445;28;45751;-69
2021/06/29 10:38:08;;;;;;;;;3.00;3.00;;;;;25.80;51.98;101028.91;5013234;28;45509;-71
2021/06/29 10:40:35;;;;;;;;;3.00;2.00;;;;;25.67;50.85;101030.03;5008911;28;45415;-67
2021/06/29 10:43:02;;;;;;;;;1.75;1.75;;;;;25.57;52.55;101017.13;5006201;28;46354;-67
2021/06/29 10:45:39;;;;;;;;;2.50;2.00;;;;;25.49;52.71;101023.75;5007942;28;45457;-67
2021/06/29 10:48:19;;;;;;;;;1.00;1.00;;;;;25.37;52.12;101024.84;5007785;28;45827;-69
2021/06/29 10:50:46;;;;;;;;;2.00;2.00;;;;;25.26;52.92;101023.81;5006363;28;45456;-68
2021/06/29 10:53:33;;;;;;;;;2.75;1.00;;;;;25.21;52.92;101023.72;5010686;28;45375;-66
2021/06/29 10:56:00;;;;;;;;;3.00;1.75;;;;;25.14;52.98;101026.53;5006921;28;45573;-69
2021/06/29 10:58:35;;;;;;;;;2.25;1.75;;;;;25.06;53.50;101024.19;5007943;28;45885;-66
2021/06/29 11:01:26;;;;;;;;;1.00;1.00;;;;;24.95;52.15;101023.16;5004576;28;45571;-67
2021/06/29 11:03:54;;;;;;;;;3.00;1.75;;;;;24.84;54.21;101022.09;5004017;28;46330;-66
2021/06/29 11:06:45;;;;;;;;;1.00;1.00;;;;;24.71;53.30;101021.56;5012066;28;45510;-71
2021/06/29 11:09:20;;;;;;;;;3.25;1.00;;;;;24.57;52.99;101019.06;4999780;28;45493;-67
2021/06/29 11:12:20;;;;;;;;;1.00;1.00;;;;;24.40;53.00;101023.50;5005358;28;45935;-69
2021/06/29 11:14:48;;;;;;;;;1.00;1.00;;;;;24.18;52.38;101026.78;4999606;28;47360;-71
2021/06/29 11:17:14;;;;;;;;;1.00;1.00;;;;;24.06;53.94;101023.25;5000264;28;49691;-65
2021/06/29 11:20:02;;;;;;;;;2.00;1.00;;;;;23.94;53.66;101025.91;5019425;28;45430;-69
2021/06/29 11:22:57;;;;;;;;;1.00;1.00;;;;;23.79;53.28;101026.34;5010624;28;45643;-71
2021/06/29 11:25:43;;;;;;;;;2.00;2.00;;;;;23.63;53.92;101035.03;5009984;28;46537;-68
2021/06/29 11:28:14;;;;;;;;;1.00;1.00;;;;;23.53;55.94;101034.75;5017591;28;45540;-67